sensor_id;sensor_type;location;lat;lon;timestamp;P1;durP1;ratioP1;P2;durP2;ratioP2
78732;SDS011;68056;52.530;5.454;2023-04-24T00:02:18;1.15;;;0.93;;
78732;SDS011;68056;52.530;5.454;2023-04-24T00:04:43;2.30;;;1.00;;
78732;SDS011;68056;52.530;5.454;2023-04-24T00:07:10;1.10;;;0.90;;
78732;SDS011;68056;52.530;5.454;2023-04-24T00:09:36;1.40;;;1.13;;
78732;SDS011;68056;52.530;5.454;2023-04-24T00:12:01;1.42;;;0.93;;
78732;SDS011;68056;52.530;5.454;2023-04-24T00:14:29;3.05;;;1.10;;
78732;SDS011;68056;52.530;5.454;2023-04-24T00:16:59;1.40;;;1.20;;
78732;SDS011;68056;52.530;5.454;2023-04-24T00:19:26;1.40;;;1.13;;
78732;SDS011;68056;52.530;5.454;2023-04-24T00:21:52;4.97;;;1.27;;
78732;SDS011;68056;52.530;5.454;2023-04-24T00:24:18;1.50;;;1.40;;
78732;SDS011;68056;52.530;5.454;2023-04-24T00:26:44;2.60;;;1.55;;
78732;SDS011;68056;52.530;5.454;2023-04-24T00:29:10;2.03;;;1.52;;
78732;SDS011;68056;52.530;5.454;2023-04-24T00:31:35;2.10;;;1.40;;
78732;SDS011;68056;52.530;5.454;2023-04-24T00:34:01;2.28;;;1.63;;
78732;SDS011;68056;52.530;5.454;2023-04-24T00:36:27;2.33;;;1.73;;
78732;SDS011;68056;52.530;5.454;2023-04-24T00:38:53;3.25;;;2.28;;
78732;SDS011;68056;52.530;5.454;2023-04-24T00:41:20;2.17;;;1.98;;
78732;SDS011;68056;52.530;5.454;2023-04-24T00:43:46;2.50;;;2.30;;
78732;SDS011;68056;52.530;5.454;2023-04-24T00:46:12;3.78;;;1.90;;
78732;SDS011;68056;52.530;5.454;2023-04-24T00:48:39;3.95;;;2.40;;
78732;SDS011;68056;52.530;5.454;2023-04-24T00:51:05;4.05;;;3.20;;
78732;SDS011;68056;52.530;5.454;2023-04-24T00:53:31;3.42;;;2.63;;
78732;SDS011;68056;52.530;5.454;2023-04-24T00:55:57;3.83;;;2.83;;
78732;SDS011;68056;52.530;5.454;2023-04-24T00:58:23;4.45;;;3.45;;
78732;SDS011;68056;52.530;5.454;2023-04-24T01:00:49;3.78;;;2.70;;
78732;SDS011;68056;52.530;5.454;2023-04-24T01:03:18;5.50;;;4.22;;
78732;SDS011;68056;52.530;5.454;2023-04-24T01:05:49;4.32;;;3.40;;
78732;SDS011;68056;52.530;5.454;2023-04-24T01:08:15;6.55;;;4.68;;
78732;SDS011;68056;52.530;5.454;2023-04-24T01:10:41;6.05;;;4.25;;
78732;SDS011;68056;52.530;5.454;2023-04-24T01:13:11;4.32;;;3.33;;
78732;SDS011;68056;52.530;5.454;2023-04-24T01:15:38;4.72;;;3.78;;
78732;SDS011;68056;52.530;5.454;2023-04-24T01:18:04;6.65;;;4.32;;
78732;SDS011;68056;52.530;5.454;2023-04-24T01:20:30;7.45;;;4.88;;
78732;SDS011;68056;52.530;5.454;2023-04-24T01:22:56;5.18;;;4.30;;
78732;SDS011;68056;52.530;5.454;2023-04-24T01:25:22;6.20;;;4.72;;
78732;SDS011;68056;52.530;5.454;2023-04-24T01:27:49;6.32;;;4.53;;
78732;SDS011;68056;52.530;5.454;2023-04-24T01:30:16;5.40;;;4.07;;
78732;SDS011;68056;52.530;5.454;2023-04-24T01:32:42;4.72;;;3.67;;
78732;SDS011;68056;52.530;5.454;2023-04-24T01:35:10;7.03;;;5.18;;
78732;SDS011;68056;52.530;5.454;2023-04-24T01:37:36;5.07;;;3.58;;
78732;SDS011;68056;52.530;5.454;2023-04-24T01:40:05;3.53;;;2.80;;
78732;SDS011;68056;52.530;5.454;2023-04-24T01:42:32;5.43;;;3.25;;
78732;SDS011;68056;52.530;5.454;2023-04-24T01:44:58;4.15;;;2.95;;
78732;SDS011;68056;52.530;5.454;2023-04-24T01:47:24;1.95;;;1.20;;
78732;SDS011;68056;52.530;5.454;2023-04-24T01:49:50;0.95;;;0.60;;
78732;SDS011;68056;52.530;5.454;2023-04-24T01:52:16;0.50;;;0.40;;
78732;SDS011;68056;52.530;5.454;2023-04-24T01:54:43;1.48;;;0.40;;
78732;SDS011;68056;52.530;5.454;2023-04-24T01:57:09;0.38;;;0.30;;
78732;SDS011;68056;52.530;5.454;2023-04-24T01:59:34;1.13;;;0.63;;
78732;SDS011;68056;52.530;5.454;2023-04-24T02:02:01;1.08;;;0.55;;
78732;SDS011;68056;52.530;5.454;2023-04-24T02:04:30;2.55;;;0.50;;
78732;SDS011;68056;52.530;5.454;2023-04-24T02:06:55;1.27;;;0.47;;
78732;SDS011;68056;52.530;5.454;2023-04-24T02:09:21;1.42;;;0.70;;
78732;SDS011;68056;52.530;5.454;2023-04-24T02:11:46;0.35;;;0.25;;
78732;SDS011;68056;52.530;5.454;2023-04-24T02:14:12;0.80;;;0.30;;
78732;SDS011;68056;52.530;5.454;2023-04-24T02:16:37;0.93;;;0.40;;
78732;SDS011;68056;52.530;5.454;2023-04-24T02:19:03;0.45;;;0.30;;
78732;SDS011;68056;52.530;5.454;2023-04-24T02:21:29;1.30;;;0.50;;
78732;SDS011;68056;52.530;5.454;2023-04-24T02:23:56;0.50;;;0.40;;
78732;SDS011;68056;52.530;5.454;2023-04-24T02:26:22;1.67;;;0.80;;
78732;SDS011;68056;52.530;5.454;2023-04-24T02:28:47;2.13;;;1.27;;
78732;SDS011;68056;52.530;5.454;2023-04-24T02:31:13;1.00;;;0.60;;
78732;SDS011;68056;52.530;5.454;2023-04-24T02:33:39;2.55;;;0.77;;
78732;SDS011;68056;52.530;5.454;2023-04-24T02:36:05;0.52;;;0.38;;
78732;SDS011;68056;52.530;5.454;2023-04-24T02:38:30;0.40;;;0.20;;
78732;SDS011;68056;52.530;5.454;2023-04-24T02:40:56;2.47;;;0.50;;
78732;SDS011;68056;52.530;5.454;2023-04-24T02:43:22;0.50;;;0.30;;
78732;SDS011;68056;52.530;5.454;2023-04-24T02:45:47;1.30;;;0.30;;
78732;SDS011;68056;52.530;5.454;2023-04-24T02:48:13;0.50;;;0.40;;
78732;SDS011;68056;52.530;5.454;2023-04-24T02:50:39;0.65;;;0.30;;
78732;SDS011;68056;52.530;5.454;2023-04-24T02:53:04;1.30;;;0.73;;
78732;SDS011;68056;52.530;5.454;2023-04-24T02:55:30;1.17;;;0.28;;
78732;SDS011;68056;52.530;5.454;2023-04-24T02:57:56;0.70;;;0.43;;
78732;SDS011;68056;52.530;5.454;2023-04-24T03:00:21;1.23;;;0.40;;
78732;SDS011;68056;52.530;5.454;2023-04-24T03:02:47;0.65;;;0.35;;
78732;SDS011;68056;52.530;5.454;2023-04-24T03:05:14;0.85;;;0.40;;
78732;SDS011;68056;52.530;5.454;2023-04-24T03:07:40;1.52;;;0.30;;
78732;SDS011;68056;52.530;5.454;2023-04-24T03:10:05;0.85;;;0.43;;
78732;SDS011;68056;52.530;5.454;2023-04-24T03:12:32;1.23;;;0.40;;
78732;SDS011;68056;52.530;5.454;2023-04-24T03:14:57;2.90;;;0.60;;
78732;SDS011;68056;52.530;5.454;2023-04-24T03:17:23;2.30;;;0.65;;
78732;SDS011;68056;52.530;5.454;2023-04-24T03:19:48;1.13;;;0.57;;
78732;SDS011;68056;52.530;5.454;2023-04-24T03:22:14;0.98;;;0.88;;
78732;SDS011;68056;52.530;5.454;2023-04-24T03:24:39;2.42;;;1.10;;
78732;SDS011;68056;52.530;5.454;2023-04-24T03:27:05;1.40;;;0.68;;
78732;SDS011;68056;52.530;5.454;2023-04-24T03:29:31;1.08;;;0.98;;
78732;SDS011;68056;52.530;5.454;2023-04-24T03:31:56;1.95;;;0.52;;
78732;SDS011;68056;52.530;5.454;2023-04-24T03:34:22;1.17;;;0.50;;
78732;SDS011;68056;52.530;5.454;2023-04-24T03:36:47;1.15;;;0.50;;
78732;SDS011;68056;52.530;5.454;2023-04-24T03:39:13;1.00;;;0.43;;
78732;SDS011;68056;52.530;5.454;2023-04-24T03:41:38;0.30;;;0.13;;
78732;SDS011;68056;52.530;5.454;2023-04-24T03:44:05;0.68;;;0.30;;
78732;SDS011;68056;52.530;5.454;2023-04-24T03:46:30;0.60;;;0.30;;
78732;SDS011;68056;52.530;5.454;2023-04-24T03:48:56;0.47;;;0.30;;
78732;SDS011;68056;52.530;5.454;2023-04-24T03:51:21;0.40;;;0.32;;
78732;SDS011;68056;52.530;5.454;2023-04-24T03:53:47;1.40;;;0.30;;
78732;SDS011;68056;52.530;5.454;2023-04-24T03:56:13;0.15;;;0.10;;
78732;SDS011;68056;52.530;5.454;2023-04-24T03:58:39;0.25;;;0.25;;
78732;SDS011;68056;52.530;5.454;2023-04-24T04:01:05;1.85;;;0.20;;
78732;SDS011;68056;52.530;5.454;2023-04-24T04:03:31;1.00;;;0.30;;
78732;SDS011;68056;52.530;5.454;2023-04-24T04:05:56;0.52;;;0.40;;
78732;SDS011;68056;52.530;5.454;2023-04-24T04:08:22;1.08;;;0.20;;
78732;SDS011;68056;52.530;5.454;2023-04-24T04:10:48;0.88;;;0.43;;
78732;SDS011;68056;52.530;5.454;2023-04-24T04:13:13;1.38;;;0.40;;
78732;SDS011;68056;52.530;5.454;2023-04-24T04:15:39;1.52;;;0.60;;
78732;SDS011;68056;52.530;5.454;2023-04-24T04:18:05;0.88;;;0.40;;
78732;SDS011;68056;52.530;5.454;2023-04-24T04:20:30;1.00;;;0.57;;
78732;SDS011;68056;52.530;5.454;2023-04-24T04:22:56;1.52;;;0.68;;
78732;SDS011;68056;52.530;5.454;2023-04-24T04:25:21;1.15;;;0.43;;
78732;SDS011;68056;52.530;5.454;2023-04-24T04:27:47;0.70;;;0.50;;
78732;SDS011;68056;52.530;5.454;2023-04-24T04:30:13;0.93;;;0.40;;
78732;SDS011;68056;52.530;5.454;2023-04-24T04:32:39;0.90;;;0.60;;
78732;SDS011;68056;52.530;5.454;2023-04-24T04:35:05;1.67;;;0.40;;
78732;SDS011;68056;52.530;5.454;2023-04-24T04:37:34;2.67;;;0.80;;
78732;SDS011;68056;52.530;5.454;2023-04-24T04:40:00;0.73;;;0.55;;
78732;SDS011;68056;52.530;5.454;2023-04-24T04:42:26;2.33;;;0.45;;
78732;SDS011;68056;52.530;5.454;2023-04-24T04:44:53;0.93;;;0.63;;
78732;SDS011;68056;52.530;5.454;2023-04-24T04:47:19;1.98;;;0.57;;
78732;SDS011;68056;52.530;5.454;2023-04-24T04:49:49;0.82;;;0.47;;
78732;SDS011;68056;52.530;5.454;2023-04-24T04:52:16;0.93;;;0.60;;
78732;SDS011;68056;52.530;5.454;2023-04-24T04:54:42;2.25;;;0.95;;
78732;SDS011;68056;52.530;5.454;2023-04-24T04:57:08;0.80;;;0.60;;
78732;SDS011;68056;52.530;5.454;2023-04-24T04:59:34;1.58;;;0.73;;
78732;SDS011;68056;52.530;5.454;2023-04-24T05:01:59;0.80;;;0.80;;
78732;SDS011;68056;52.530;5.454;2023-04-24T05:04:25;1.27;;;0.80;;
78732;SDS011;68056;52.530;5.454;2023-04-24T05:06:51;2.42;;;0.65;;
78732;SDS011;68056;52.530;5.454;2023-04-24T05:09:17;1.40;;;0.80;;
78732;SDS011;68056;52.530;5.454;2023-04-24T05:11:43;1.73;;;0.63;;
78732;SDS011;68056;52.530;5.454;2023-04-24T05:14:09;1.63;;;1.00;;
78732;SDS011;68056;52.530;5.454;2023-04-24T05:16:34;2.65;;;0.88;;
78732;SDS011;68056;52.530;5.454;2023-04-24T05:19:01;2.10;;;0.68;;
78732;SDS011;68056;52.530;5.454;2023-04-24T05:21:27;2.00;;;1.00;;
78732;SDS011;68056;52.530;5.454;2023-04-24T05:23:53;2.35;;;0.90;;
78732;SDS011;68056;52.530;5.454;2023-04-24T05:26:18;1.27;;;0.70;;
78732;SDS011;68056;52.530;5.454;2023-04-24T05:28:44;3.33;;;1.42;;
78732;SDS011;68056;52.530;5.454;2023-04-24T05:31:10;2.72;;;0.93;;
78732;SDS011;68056;52.530;5.454;2023-04-24T05:33:37;2.72;;;1.38;;
78732;SDS011;68056;52.530;5.454;2023-04-24T05:36:02;3.72;;;1.58;;
78732;SDS011;68056;52.530;5.454;2023-04-24T05:38:28;3.17;;;1.25;;
78732;SDS011;68056;52.530;5.454;2023-04-24T05:40:54;3.10;;;1.20;;
78732;SDS011;68056;52.530;5.454;2023-04-24T05:43:20;1.13;;;0.70;;
78732;SDS011;68056;52.530;5.454;2023-04-24T05:45:45;1.95;;;1.33;;
78732;SDS011;68056;52.530;5.454;2023-04-24T05:48:11;2.42;;;1.25;;
78732;SDS011;68056;52.530;5.454;2023-04-24T05:50:36;3.30;;;1.30;;
78732;SDS011;68056;52.530;5.454;2023-04-24T05:53:02;2.35;;;1.02;;
78732;SDS011;68056;52.530;5.454;2023-04-24T05:55:28;1.55;;;0.90;;
78732;SDS011;68056;52.530;5.454;2023-04-24T05:57:53;1.63;;;1.30;;
78732;SDS011;68056;52.530;5.454;2023-04-24T06:00:19;1.25;;;0.98;;
78732;SDS011;68056;52.530;5.454;2023-04-24T06:02:46;3.17;;;1.15;;
78732;SDS011;68056;52.530;5.454;2023-04-24T06:05:12;1.90;;;0.57;;
78732;SDS011;68056;52.530;5.454;2023-04-24T06:07:37;2.45;;;1.15;;
78732;SDS011;68056;52.530;5.454;2023-04-24T06:10:03;1.33;;;0.98;;
78732;SDS011;68056;52.530;5.454;2023-04-24T06:12:29;3.22;;;2.03;;
78732;SDS011;68056;52.530;5.454;2023-04-24T06:14:55;4.28;;;2.53;;
78732;SDS011;68056;52.530;5.454;2023-04-24T06:17:21;6.93;;;3.47;;
78732;SDS011;68056;52.530;5.454;2023-04-24T06:19:47;10.65;;;5.32;;
78732;SDS011;68056;52.530;5.454;2023-04-24T06:22:13;13.00;;;6.65;;
78732;SDS011;68056;52.530;5.454;2023-04-24T06:24:42;11.93;;;6.68;;
78732;SDS011;68056;52.530;5.454;2023-04-24T06:27:07;12.05;;;6.15;;
78732;SDS011;68056;52.530;5.454;2023-04-24T06:29:33;9.38;;;5.93;;
78732;SDS011;68056;52.530;5.454;2023-04-24T06:31:59;11.20;;;5.78;;
78732;SDS011;68056;52.530;5.454;2023-04-24T06:34:24;10.23;;;4.90;;
78732;SDS011;68056;52.530;5.454;2023-04-24T06:36:50;7.82;;;4.05;;
78732;SDS011;68056;52.530;5.454;2023-04-24T06:39:16;8.88;;;4.72;;
78732;SDS011;68056;52.530;5.454;2023-04-24T06:41:41;7.88;;;3.85;;
78732;SDS011;68056;52.530;5.454;2023-04-24T06:44:07;5.30;;;3.70;;
78732;SDS011;68056;52.530;5.454;2023-04-24T06:46:32;9.90;;;4.00;;
78732;SDS011;68056;52.530;5.454;2023-04-24T06:48:58;7.65;;;4.03;;
78732;SDS011;68056;52.530;5.454;2023-04-24T06:51:25;9.35;;;4.03;;
78732;SDS011;68056;52.530;5.454;2023-04-24T06:53:51;6.30;;;3.97;;
78732;SDS011;68056;52.530;5.454;2023-04-24T06:56:18;6.88;;;4.85;;
78732;SDS011;68056;52.530;5.454;2023-04-24T06:58:44;10.90;;;4.78;;
78732;SDS011;68056;52.530;5.454;2023-04-24T07:01:10;11.55;;;5.70;;
78732;SDS011;68056;52.530;5.454;2023-04-24T07:03:36;8.88;;;5.25;;
78732;SDS011;68056;52.530;5.454;2023-04-24T07:06:02;8.02;;;4.90;;
78732;SDS011;68056;52.530;5.454;2023-04-24T07:08:28;11.25;;;5.63;;
78732;SDS011;68056;52.530;5.454;2023-04-24T07:10:55;11.00;;;4.35;;
78732;SDS011;68056;52.530;5.454;2023-04-24T07:13:21;9.57;;;4.78;;
78732;SDS011;68056;52.530;5.454;2023-04-24T07:15:47;11.77;;;4.60;;
78732;SDS011;68056;52.530;5.454;2023-04-24T07:18:15;7.57;;;4.10;;
78732;SDS011;68056;52.530;5.454;2023-04-24T07:20:41;8.80;;;3.47;;
78732;SDS011;68056;52.530;5.454;2023-04-24T07:23:07;7.07;;;4.00;;
78732;SDS011;68056;52.530;5.454;2023-04-24T07:25:33;9.45;;;3.83;;
78732;SDS011;68056;52.530;5.454;2023-04-24T07:27:58;9.40;;;4.40;;
78732;SDS011;68056;52.530;5.454;2023-04-24T07:30:24;6.80;;;3.72;;
78732;SDS011;68056;52.530;5.454;2023-04-24T07:32:50;5.18;;;3.60;;
78732;SDS011;68056;52.530;5.454;2023-04-24T07:35:16;7.53;;;4.32;;
78732;SDS011;68056;52.530;5.454;2023-04-24T07:37:41;7.05;;;4.13;;
78732;SDS011;68056;52.530;5.454;2023-04-24T07:40:11;8.48;;;4.22;;
78732;SDS011;68056;52.530;5.454;2023-04-24T07:42:37;4.80;;;2.95;;
78732;SDS011;68056;52.530;5.454;2023-04-24T07:45:03;7.10;;;3.58;;
78732;SDS011;68056;52.530;5.454;2023-04-24T07:47:29;7.35;;;3.30;;
78732;SDS011;68056;52.530;5.454;2023-04-24T07:49:56;7.65;;;4.13;;
78732;SDS011;68056;52.530;5.454;2023-04-24T07:52:21;4.97;;;3.45;;
78732;SDS011;68056;52.530;5.454;2023-04-24T07:54:47;6.68;;;3.63;;
78732;SDS011;68056;52.530;5.454;2023-04-24T07:57:12;8.02;;;3.08;;
78732;SDS011;68056;52.530;5.454;2023-04-24T07:59:38;7.95;;;3.72;;
78732;SDS011;68056;52.530;5.454;2023-04-24T08:02:04;9.07;;;3.65;;
78732;SDS011;68056;52.530;5.454;2023-04-24T08:04:31;6.93;;;2.90;;
78732;SDS011;68056;52.530;5.454;2023-04-24T08:06:56;6.20;;;3.42;;
78732;SDS011;68056;52.530;5.454;2023-04-24T08:09:22;7.25;;;3.33;;
78732;SDS011;68056;52.530;5.454;2023-04-24T08:11:48;6.05;;;3.80;;
78732;SDS011;68056;52.530;5.454;2023-04-24T08:14:13;6.60;;;3.25;;
78732;SDS011;68056;52.530;5.454;2023-04-24T08:16:40;4.90;;;2.40;;
78732;SDS011;68056;52.530;5.454;2023-04-24T08:19:05;5.20;;;3.03;;
78732;SDS011;68056;52.530;5.454;2023-04-24T08:21:32;5.38;;;3.03;;
78732;SDS011;68056;52.530;5.454;2023-04-24T08:23:57;10.43;;;3.20;;
78732;SDS011;68056;52.530;5.454;2023-04-24T08:26:23;5.15;;;2.53;;
78732;SDS011;68056;52.530;5.454;2023-04-24T08:28:49;6.15;;;2.90;;
78732;SDS011;68056;52.530;5.454;2023-04-24T08:31:15;6.45;;;2.75;;
78732;SDS011;68056;52.530;5.454;2023-04-24T08:33:40;11.13;;;4.15;;
78732;SDS011;68056;52.530;5.454;2023-04-24T08:36:06;5.55;;;2.60;;
78732;SDS011;68056;52.530;5.454;2023-04-24T08:38:32;5.68;;;2.75;;
78732;SDS011;68056;52.530;5.454;2023-04-24T08:40:58;5.35;;;2.40;;
78732;SDS011;68056;52.530;5.454;2023-04-24T08:43:26;5.28;;;3.22;;
78732;SDS011;68056;52.530;5.454;2023-04-24T08:45:52;4.95;;;2.28;;
78732;SDS011;68056;52.530;5.454;2023-04-24T08:48:20;3.72;;;2.20;;
78732;SDS011;68056;52.530;5.454;2023-04-24T08:50:47;5.38;;;2.20;;
78732;SDS011;68056;52.530;5.454;2023-04-24T08:53:15;6.20;;;2.30;;
78732;SDS011;68056;52.530;5.454;2023-04-24T08:55:41;10.30;;;2.35;;
78732;SDS011;68056;52.530;5.454;2023-04-24T08:58:11;7.45;;;2.28;;
78732;SDS011;68056;52.530;5.454;2023-04-24T09:00:37;8.45;;;2.83;;
78732;SDS011;68056;52.530;5.454;2023-04-24T09:03:04;6.55;;;1.80;;
78732;SDS011;68056;52.530;5.454;2023-04-24T09:05:31;4.53;;;1.88;;
78732;SDS011;68056;52.530;5.454;2023-04-24T09:07:58;9.10;;;2.33;;
78732;SDS011;68056;52.530;5.454;2023-04-24T09:10:27;10.30;;;1.80;;
78732;SDS011;68056;52.530;5.454;2023-04-24T09:12:55;8.45;;;1.90;;
78732;SDS011;68056;52.530;5.454;2023-04-24T09:15:23;8.05;;;1.55;;
78732;SDS011;68056;52.530;5.454;2023-04-24T09:17:49;3.90;;;1.33;;
78732;SDS011;68056;52.530;5.454;2023-04-24T09:20:14;5.18;;;1.67;;
78732;SDS011;68056;52.530;5.454;2023-04-24T09:22:41;4.28;;;1.30;;
78732;SDS011;68056;52.530;5.454;2023-04-24T09:27:34;3.72;;;1.20;;
78732;SDS011;68056;52.530;5.454;2023-04-24T09:30:01;7.18;;;1.55;;
78732;SDS011;68056;52.530;5.454;2023-04-24T09:32:27;5.47;;;1.25;;
78732;SDS011;68056;52.530;5.454;2023-04-24T09:37:38;5.38;;;1.10;;
78732;SDS011;68056;52.530;5.454;2023-04-24T09:42:46;3.20;;;1.45;;
78732;SDS011;68056;52.530;5.454;2023-04-24T09:45:27;4.88;;;0.98;;
78732;SDS011;68056;52.530;5.454;2023-04-24T09:48:03;3.60;;;1.00;;
78732;SDS011;68056;52.530;5.454;2023-04-24T09:50:31;3.15;;;1.63;;
78732;SDS011;68056;52.530;5.454;2023-04-24T09:52:58;3.90;;;1.00;;
78732;SDS011;68056;52.530;5.454;2023-04-24T09:55:26;3.03;;;1.00;;
78732;SDS011;68056;52.530;5.454;2023-04-24T09:57:56;7.28;;;1.20;;
78732;SDS011;68056;52.530;5.454;2023-04-24T10:00:28;5.35;;;1.17;;
78732;SDS011;68056;52.530;5.454;2023-04-24T10:02:56;8.85;;;1.52;;
78732;SDS011;68056;52.530;5.454;2023-04-24T10:05:23;4.57;;;1.90;;
78732;SDS011;68056;52.530;5.454;2023-04-24T10:07:49;1.65;;;0.90;;
78732;SDS011;68056;52.530;5.454;2023-04-24T10:10:15;3.00;;;1.00;;
78732;SDS011;68056;52.530;5.454;2023-04-24T10:12:41;3.50;;;1.00;;
78732;SDS011;68056;52.530;5.454;2023-04-24T10:15:09;1.85;;;0.63;;
78732;SDS011;68056;52.530;5.454;2023-04-24T10:17:37;6.53;;;0.93;;
78732;SDS011;68056;52.530;5.454;2023-04-24T10:20:04;1.63;;;0.77;;
78732;SDS011;68056;52.530;5.454;2023-04-24T10:22:31;2.35;;;0.70;;
78732;SDS011;68056;52.530;5.454;2023-04-24T10:24:57;5.07;;;1.05;;
78732;SDS011;68056;52.530;5.454;2023-04-24T10:27:24;4.72;;;1.15;;
78732;SDS011;68056;52.530;5.454;2023-04-24T10:29:51;4.38;;;0.82;;
78732;SDS011;68056;52.530;5.454;2023-04-24T10:32:18;2.65;;;1.13;;
78732;SDS011;68056;52.530;5.454;2023-04-24T10:34:44;4.15;;;0.80;;
78732;SDS011;68056;52.530;5.454;2023-04-24T10:37:09;2.53;;;0.80;;
78732;SDS011;68056;52.530;5.454;2023-04-24T10:39:35;3.00;;;0.80;;
78732;SDS011;68056;52.530;5.454;2023-04-24T10:42:02;2.00;;;1.00;;
78732;SDS011;68056;52.530;5.454;2023-04-24T10:44:40;2.75;;;0.80;;
78732;SDS011;68056;52.530;5.454;2023-04-24T10:47:06;3.42;;;1.02;;
78732;SDS011;68056;52.530;5.454;2023-04-24T10:49:37;2.65;;;0.73;;
78732;SDS011;68056;52.530;5.454;2023-04-24T10:52:03;2.80;;;0.90;;
78732;SDS011;68056;52.530;5.454;2023-04-24T10:54:42;2.53;;;0.70;;
78732;SDS011;68056;52.530;5.454;2023-04-24T11:02:38;2.35;;;0.60;;
78732;SDS011;68056;52.530;5.454;2023-04-24T11:05:05;4.95;;;0.60;;
78732;SDS011;68056;52.530;5.454;2023-04-24T11:10:39;2.05;;;0.50;;
78732;SDS011;68056;52.530;5.454;2023-04-24T11:13:25;1.00;;;0.60;;
78732;SDS011;68056;52.530;5.454;2023-04-24T11:18:38;3.50;;;0.68;;
78732;SDS011;68056;52.530;5.454;2023-04-24T11:21:13;6.07;;;0.93;;
78732;SDS011;68056;52.530;5.454;2023-04-24T11:23:42;2.05;;;0.50;;
78732;SDS011;68056;52.530;5.454;2023-04-24T11:29:06;1.67;;;0.57;;
78732;SDS011;68056;52.530;5.454;2023-04-24T11:31:39;1.05;;;0.40;;
78732;SDS011;68056;52.530;5.454;2023-04-24T11:34:13;1.38;;;0.50;;
78732;SDS011;68056;52.530;5.454;2023-04-24T11:36:39;2.65;;;0.90;;
78732;SDS011;68056;52.530;5.454;2023-04-24T11:39:08;3.00;;;0.52;;
78732;SDS011;68056;52.530;5.454;2023-04-24T11:41:34;2.60;;;0.60;;
78732;SDS011;68056;52.530;5.454;2023-04-24T11:44:00;2.33;;;0.50;;
78732;SDS011;68056;52.530;5.454;2023-04-24T11:46:27;3.25;;;0.70;;
78732;SDS011;68056;52.530;5.454;2023-04-24T11:51:20;0.90;;;0.50;;
78732;SDS011;68056;52.530;5.454;2023-04-24T11:53:48;3.83;;;0.85;;
78732;SDS011;68056;52.530;5.454;2023-04-24T11:56:17;1.85;;;0.45;;
78732;SDS011;68056;52.530;5.454;2023-04-24T11:58:44;1.55;;;0.32;;
78732;SDS011;68056;52.530;5.454;2023-04-24T12:01:10;1.33;;;0.65;;
78732;SDS011;68056;52.530;5.454;2023-04-24T12:03:35;2.70;;;0.57;;
78732;SDS011;68056;52.530;5.454;2023-04-24T12:06:07;1.33;;;0.43;;
78732;SDS011;68056;52.530;5.454;2023-04-24T12:08:36;2.55;;;0.50;;
78732;SDS011;68056;52.530;5.454;2023-04-24T12:11:03;1.20;;;0.30;;
78732;SDS011;68056;52.530;5.454;2023-04-24T12:13:32;2.83;;;0.45;;
78732;SDS011;68056;52.530;5.454;2023-04-24T12:15:58;2.08;;;0.65;;
78732;SDS011;68056;52.530;5.454;2023-04-24T12:18:24;1.70;;;0.43;;
78732;SDS011;68056;52.530;5.454;2023-04-24T12:20:50;1.40;;;0.43;;
78732;SDS011;68056;52.530;5.454;2023-04-24T12:23:15;1.38;;;0.45;;
78732;SDS011;68056;52.530;5.454;2023-04-24T12:25:42;1.83;;;0.40;;
78732;SDS011;68056;52.530;5.454;2023-04-24T12:28:09;1.80;;;0.63;;
78732;SDS011;68056;52.530;5.454;2023-04-24T12:30:42;4.60;;;0.65;;
78732;SDS011;68056;52.530;5.454;2023-04-24T12:33:09;4.72;;;0.93;;
78732;SDS011;68056;52.530;5.454;2023-04-24T12:35:35;3.70;;;0.90;;
78732;SDS011;68056;52.530;5.454;2023-04-24T12:38:11;2.92;;;0.90;;
78732;SDS011;68056;52.530;5.454;2023-04-24T12:40:39;1.40;;;0.70;;
78732;SDS011;68056;52.530;5.454;2023-04-24T12:43:14;3.80;;;0.95;;
78732;SDS011;68056;52.530;5.454;2023-04-24T12:45:44;4.78;;;0.95;;
78732;SDS011;68056;52.530;5.454;2023-04-24T12:48:10;3.42;;;0.90;;
78732;SDS011;68056;52.530;5.454;2023-04-24T12:50:36;3.90;;;0.93;;
78732;SDS011;68056;52.530;5.454;2023-04-24T12:53:02;2.63;;;0.70;;
78732;SDS011;68056;52.530;5.454;2023-04-24T12:55:28;3.70;;;0.95;;
78732;SDS011;68056;52.530;5.454;2023-04-24T12:57:53;4.93;;;1.00;;
78732;SDS011;68056;52.530;5.454;2023-04-24T13:00:20;3.58;;;0.52;;
78732;SDS011;68056;52.530;5.454;2023-04-24T13:02:46;2.15;;;0.55;;
78732;SDS011;68056;52.530;5.454;2023-04-24T13:05:11;3.85;;;1.35;;
78732;SDS011;68056;52.530;5.454;2023-04-24T13:07:38;5.03;;;1.58;;
78732;SDS011;68056;52.530;5.454;2023-04-24T13:10:04;2.47;;;0.47;;
78732;SDS011;68056;52.530;5.454;2023-04-24T13:12:31;2.55;;;0.70;;
78732;SDS011;68056;52.530;5.454;2023-04-24T13:14:58;4.60;;;0.98;;
78732;SDS011;68056;52.530;5.454;2023-04-24T13:17:24;4.10;;;0.82;;
78732;SDS011;68056;52.530;5.454;2023-04-24T13:19:50;3.13;;;0.80;;
78732;SDS011;68056;52.530;5.454;2023-04-24T13:22:16;4.15;;;1.55;;
78732;SDS011;68056;52.530;5.454;2023-04-24T13:24:44;5.50;;;1.00;;
78732;SDS011;68056;52.530;5.454;2023-04-24T13:27:09;4.35;;;1.38;;
78732;SDS011;68056;52.530;5.454;2023-04-24T13:29:35;5.55;;;1.63;;
78732;SDS011;68056;52.530;5.454;2023-04-24T13:32:02;7.63;;;1.38;;
78732;SDS011;68056;52.530;5.454;2023-04-24T13:34:27;6.28;;;1.58;;
78732;SDS011;68056;52.530;5.454;2023-04-24T13:36:54;3.58;;;1.05;;
78732;SDS011;68056;52.530;5.454;2023-04-24T13:39:21;3.72;;;1.05;;
78732;SDS011;68056;52.530;5.454;2023-04-24T13:41:48;11.65;;;1.80;;
78732;SDS011;68056;52.530;5.454;2023-04-24T13:44:14;6.28;;;1.58;;
78732;SDS011;68056;52.530;5.454;2023-04-24T13:46:41;7.13;;;1.55;;
78732;SDS011;68056;52.530;5.454;2023-04-24T13:49:08;9.25;;;2.05;;
78732;SDS011;68056;52.530;5.454;2023-04-24T13:51:34;3.80;;;1.60;;
78732;SDS011;68056;52.530;5.454;2023-04-24T13:54:00;8.43;;;1.75;;
78732;SDS011;68056;52.530;5.454;2023-04-24T13:56:25;7.20;;;1.40;;
78732;SDS011;68056;52.530;5.454;2023-04-24T13:58:51;4.50;;;1.20;;
78732;SDS011;68056;52.530;5.454;2023-04-24T14:01:16;7.40;;;1.70;;
78732;SDS011;68056;52.530;5.454;2023-04-24T14:03:42;8.10;;;2.38;;
78732;SDS011;68056;52.530;5.454;2023-04-24T14:06:10;8.82;;;1.90;;
78732;SDS011;68056;52.530;5.454;2023-04-24T14:08:36;7.65;;;1.88;;
78732;SDS011;68056;52.530;5.454;2023-04-24T14:11:02;7.60;;;1.77;;
78732;SDS011;68056;52.530;5.454;2023-04-24T14:13:27;8.32;;;1.48;;
78732;SDS011;68056;52.530;5.454;2023-04-24T14:15:53;8.80;;;2.10;;
78732;SDS011;68056;52.530;5.454;2023-04-24T14:18:19;7.70;;;1.63;;
78732;SDS011;68056;52.530;5.454;2023-04-24T14:20:45;8.98;;;2.17;;
78732;SDS011;68056;52.530;5.454;2023-04-24T14:23:11;6.10;;;1.65;;
78732;SDS011;68056;52.530;5.454;2023-04-24T14:25:36;7.80;;;1.45;;
78732;SDS011;68056;52.530;5.454;2023-04-24T14:28:02;4.85;;;1.30;;
78732;SDS011;68056;52.530;5.454;2023-04-24T14:30:28;6.43;;;1.20;;
78732;SDS011;68056;52.530;5.454;2023-04-24T14:32:53;4.00;;;1.33;;
78732;SDS011;68056;52.530;5.454;2023-04-24T14:35:19;3.97;;;1.20;;
78732;SDS011;68056;52.530;5.454;2023-04-24T14:37:44;4.68;;;1.25;;
78732;SDS011;68056;52.530;5.454;2023-04-24T14:40:10;8.00;;;1.83;;
78732;SDS011;68056;52.530;5.454;2023-04-24T14:42:36;8.15;;;1.80;;
78732;SDS011;68056;52.530;5.454;2023-04-24T14:45:02;5.97;;;1.35;;
78732;SDS011;68056;52.530;5.454;2023-04-24T14:47:27;6.68;;;2.15;;
78732;SDS011;68056;52.530;5.454;2023-04-24T14:49:54;7.60;;;2.05;;
78732;SDS011;68056;52.530;5.454;2023-04-24T14:52:19;7.68;;;2.00;;
78732;SDS011;68056;52.530;5.454;2023-04-24T14:54:45;5.45;;;1.73;;
78732;SDS011;68056;52.530;5.454;2023-04-24T14:57:11;6.05;;;1.73;;
78732;SDS011;68056;52.530;5.454;2023-04-24T14:59:37;7.80;;;2.75;;
78732;SDS011;68056;52.530;5.454;2023-04-24T15:02:03;4.25;;;1.60;;
78732;SDS011;68056;52.530;5.454;2023-04-24T15:04:29;7.78;;;2.15;;
78732;SDS011;68056;52.530;5.454;2023-04-24T15:06:55;5.38;;;2.00;;
78732;SDS011;68056;52.530;5.454;2023-04-24T15:09:22;3.25;;;0.80;;